Main page
METAR-TAF:

METAR-TAF

Airports :

Kingston, Jamaica

Norman Manley International Airport

latitude: 17-56N, longitude: 076-47W, elevation: 3 m

Current weather observation

The report was made 49 minutes ago, at 08:00 UTC
Wind 3 kt from the West/Southwest
Temperature 28°C
Humidity 70%
Pressure 1013 hPa
Visibility 10 km or more
Few clouds at a height of 2200 ft

METAR: MKJP 300800Z 24003KT 9999 FEW022 28/22 Q1013

Time: 03:49 (08:49 UTC)

Forecast

The report was made 3 hours and 34 minutes ago, at 05:15 UTC
Forecast valid from 30 at 06 UTC to 01 at 06 UTC
Wind 5 kt from the North
Visibility 10 km or more
Few clouds at a height of 2200 ft
Becoming
from 30 at 14 UTC to 30 at 16 UTC
Wind 22 kt from the Southeast
Scattered clouds at a height of 1800 ft
Scattered clouds at a height of 2000 ft, Cumulonimbus.
Becoming
from 01 at 01 UTC to 01 at 03 UTC
Wind 5 kt from the North
Few clouds at a height of 2200 ft

TAF: MKJP 300515Z 3006/0106 36005KT 9999 FEW022 BECMG 3014/3016 14022KT SCT018 SCT020CB BECMG 0101/0103 36005KT FEW022

Weather observations and forecasts of more than 4000 airports (METAR and TAF reports).

The available stations are represented by yellow and red dots on the map.

Hover mouse over dot to see the name of the station.

Then click to see weather observations and forecasts.

To change the map : click on the green buttons with a black cross to zoom in, on the green button with a dash to zoom out, or on the green arrows for adjacent maps.


METAR-TAF: